Time;durP1;ratioP1;P1;durP2;ratioP2;P2;SDS_P1;SDS_P2;PMS_P1;PMS_P2;Temp;Humidity;BMP_temperature;BMP_pressure;BME280_temperature;BME280_humidity;BME280_pressure;Samples;Min_cycle;Max_cycle;Signal;HPM_P1;HPM_P2
2021/06/14 00:01:29;;;;;;;1.25;1.25;;;;;;;16.18;63.76;101732.47;6364034;28;20182;-74
2021/06/14 00:04:34;;;;;;;1.50;1.40;;;;;;;16.13;64.46;101724.09;6363890;28;20399;-74
2021/06/14 00:07:41;;;;;;;1.67;1.30;;;;;;;16.12;65.22;101743.59;6364142;28;20189;-75
2021/06/14 00:10:48;;;;;;;1.70;1.60;;;;;;;16.09;65.28;101733.88;6363843;28;20205;-75
2021/06/14 00:13:52;;;;;;;1.80;1.80;;;;;;;16.14;65.20;101725.78;6364949;28;20214;-75
2021/06/14 00:16:57;;;;;;;2.47;1.70;;;;;;;16.08;65.77;101734.09;6364505;28;20262;-74
2021/06/14 00:20:01;;;;;;;1.40;1.40;;;;;;;16.07;66.27;101736.03;6364459;28;20269;-74
2021/06/14 00:23:09;;;;;;;1.75;1.63;;;;;;;15.98;67.00;101731.91;6363411;28;20515;-75
2021/06/14 00:26:15;;;;;;;4.10;1.60;;;;;;;15.93;66.96;101731.75;6364776;28;20221;-74
2021/06/14 00:29:19;;;;;;;2.10;2.00;;;;;;;15.96;66.26;101736.81;6364327;28;20214;-75
2021/06/14 00:32:23;;;;;;;1.73;1.63;;;;;;;15.95;66.69;101731.50;6363452;28;20258;-75
2021/06/14 00:35:27;;;;;;;1.55;1.38;;;;;;;15.93;66.15;101745.53;6363139;28;20496;-75
2021/06/14 00:38:33;;;;;;;1.55;1.45;;;;;;;15.91;66.14;101731.16;6363086;28;20516;-74
2021/06/14 00:41:38;;;;;;;1.35;1.33;;;;;;;15.86;66.26;101728.25;6362901;28;20465;-75
2021/06/14 00:44:42;;;;;;;1.40;1.40;;;;;;;15.87;65.14;101720.84;6344950;28;20201;-74
2021/06/14 00:47:48;;;;;;;1.50;1.50;;;;;;;15.74;65.56;101719.06;6363716;28;20290;-74
2021/06/14 00:50:54;;;;;;;1.25;1.25;;;;;;;15.68;64.83;101720.00;6363076;28;20229;-75
2021/06/14 00:54:02;;;;;;;1.35;1.35;;;;;;;15.81;63.77;101708.84;6345160;28;20217;-75
2021/06/14 00:57:09;;;;;;;1.90;1.80;;;;;;;15.69;64.53;101707.91;6345526;28;20247;-74
2021/06/14 01:00:15;;;;;;;1.90;1.83;;;;;;;15.75;64.57;101698.75;6344598;28;20489;-75
2021/06/14 01:03:32;;;;;;;1.40;1.40;;;;;;;15.78;63.75;101709.31;6363326;28;20235;-75
2021/06/14 01:06:38;;;;;;;1.40;1.40;;;;;;;15.77;63.52;101701.28;6362449;28;20392;-75
2021/06/14 01:09:46;;;;;;;1.48;1.30;;;;;;;15.62;62.17;101698.91;6363113;28;20183;-74
2021/06/14 01:13:06;;;;;;;1.58;1.58;;;;;;;15.66;61.80;101694.63;6362153;28;20242;-75
2021/06/14 01:16:19;;;;;;;1.95;1.70;;;;;;;15.57;63.50;101671.25;6363554;28;20242;-74
2021/06/14 01:20:08;;;;;;;1.50;1.50;;;;;;;15.66;62.49;101683.63;6345480;28;20198;-74
2021/06/14 01:23:47;;;;;;;2.70;1.50;;;;;;;15.58;61.89;101671.03;6249731;28;20201;-74
2021/06/14 01:27:02;;;;;;;3.58;1.65;;;;;;;15.67;62.27;101674.28;6329848;28;20378;-74
2021/06/14 01:30:16;;;;;;;1.58;1.50;;;;;;;15.66;61.41;101683.63;6362914;28;20183;-74
2021/06/14 01:33:26;;;;;;;1.70;1.58;;;;;;;15.66;61.70;101672.63;6344793;28;20205;-75
2021/06/14 01:36:33;;;;;;;5.10;1.70;;;;;;;15.53;61.71;101668.13;6344457;28;20225;-75
2021/06/14 01:39:42;;;;;;;1.73;1.52;;;;;;;15.58;61.19;101670.19;6363236;28;20238;-75
2021/06/14 01:42:50;;;;;;;1.88;1.77;;;;;;;15.56;60.70;101655.84;6343736;28;20376;-76
2021/06/14 01:46:01;;;;;;;5.28;1.63;;;;;;;15.62;60.59;101671.41;6344391;28;20247;-75
2021/06/14 01:49:09;;;;;;;4.22;1.30;;;;;;;15.56;60.98;101664.09;6343163;28;20268;-75
2021/06/14 01:52:16;;;;;;;1.88;1.52;;;;;;;15.64;60.48;101669.25;6362052;28;20182;-75
2021/06/14 01:55:22;;;;;;;1.98;1.55;;;;;;;15.45;60.58;101648.31;6344482;28;20285;-75
2021/06/14 01:58:34;;;;;;;1.70;1.60;;;;;;;15.54;61.07;101668.94;6344003;28;20236;-75
2021/06/14 02:01:51;;;;;;;2.92;1.50;;;;;;;15.57;61.41;101665.75;6344396;28;20230;-75
2021/06/14 02:04:58;;;;;;;1.63;1.60;;;;;;;15.55;61.17;101674.25;6344623;28;20202;-75
2021/06/14 02:08:09;;;;;;;1.40;1.40;;;;;;;15.46;61.01;101677.50;6362787;28;20196;-75
2021/06/14 02:11:14;;;;;;;1.45;1.45;;;;;;;15.47;60.76;101669.03;6344451;28;20198;-75
2021/06/14 02:14:27;;;;;;;4.30;1.60;;;;;;;15.55;61.42;101671.50;6343457;28;20314;-75
2021/06/14 02:17:37;;;;;;;1.55;1.45;;;;;;;15.58;60.68;101679.28;6343003;28;20197;-75
2021/06/14 02:20:44;;;;;;;1.85;1.75;;;;;;;15.48;61.66;101672.63;6344470;28;20198;-75
2021/06/14 02:23:50;;;;;;;1.75;1.70;;;;;;;15.43;62.04;101666.94;6344329;28;20198;-75
2021/06/14 02:26:55;;;;;;;1.80;1.70;;;;;;;15.48;60.72;101681.75;6361208;28;20186;-75
2021/06/14 02:30:00;;;;;;;1.70;1.70;;;;;;;15.41;60.71;101674.56;6343354;28;20265;-75
2021/06/14 02:33:07;;;;;;;1.65;1.60;;;;;;;15.50;60.39;101689.75;6362289;28;20182;-75
2021/06/14 02:36:17;;;;;;;2.33;1.60;;;;;;;15.46;60.55;101672.00;6343262;28;20550;-75
2021/06/14 02:39:25;;;;;;;1.75;1.65;;;;;;;15.45;59.52;101665.69;6342881;28;20417;-75
2021/06/14 02:42:31;;;;;;;1.65;1.60;;;;;;;15.49;59.11;101666.91;6343595;28;20229;-75
2021/06/14 02:45:37;;;;;;;2.17;1.70;;;;;;;15.51;59.19;101650.19;6361018;28;20576;-75
2021/06/14 02:48:51;;;;;;;1.60;1.60;;;;;;;15.38;59.47;101625.56;6342637;28;20241;-75
2021/06/14 02:52:01;;;;;;;1.60;1.60;;;;;;;15.49;59.99;101649.53;6344055;28;20230;-75
2021/06/14 02:55:13;;;;;;;2.33;1.52;;;;;;;15.43;61.45;101642.22;6344084;28;20233;-75
2021/06/14 02:58:26;;;;;;;3.42;1.70;;;;;;;15.54;60.92;101638.69;6347680;28;20454;-75
2021/06/14 03:01:34;;;;;;;2.78;1.60;;;;;;;15.47;60.49;101635.19;6347584;28;20229;-75
2021/06/14 03:04:40;;;;;;;1.60;1.55;;;;;;;15.57;60.38;101630.00;6366729;28;20190;-75
2021/06/14 03:07:46;;;;;;;3.72;1.90;;;;;;;15.61;60.62;101625.72;6347726;28;20220;-75
2021/06/14 03:10:51;;;;;;;2.13;1.90;;;;;;;15.66;61.64;101617.63;6347545;28;20381;-75
2021/06/14 03:13:58;;;;;;;2.47;1.90;;;;;;;15.68;61.10;101615.47;6366504;28;20186;-75
2021/06/14 03:17:06;;;;;;;2.50;1.70;;;;;;;15.71;61.12;101620.50;6347381;28;20225;-75
2021/06/14 03:20:16;;;;;;;2.95;1.50;;;;;;;15.73;60.16;101612.84;6347663;28;20348;-75
2021/06/14 03:23:20;;;;;;;1.85;1.73;;;;;;;15.68;61.03;101609.97;6365962;28;20189;-75
2021/06/14 03:26:31;;;;;;;1.90;1.80;;;;;;;15.65;61.28;101611.28;6347759;28;20237;-75
2021/06/14 03:29:36;;;;;;;2.00;1.90;;;;;;;15.69;62.11;101621.81;6346846;28;20237;-75
2021/06/14 03:32:42;;;;;;;4.07;2.28;;;;;;;15.78;60.86;101621.25;6366082;28;20250;-77
2021/06/14 03:35:50;;;;;;;2.20;2.10;;;;;;;15.79;60.31;101616.59;6365651;28;20216;-75
2021/06/14 03:38:54;;;;;;;2.47;2.30;;;;;;;15.76;61.39;101606.91;6364432;28;20204;-75
2021/06/14 03:41:58;;;;;;;3.15;2.42;;;;;;;15.71;60.96;101615.00;6365523;28;20247;-75
2021/06/14 03:45:03;;;;;;;6.38;2.20;;;;;;;15.74;61.51;101603.50;6365248;28;20445;-75
2021/06/14 03:48:09;;;;;;;3.20;2.38;;;;;;;15.73;61.59;101604.59;6364916;28;20275;-75
2021/06/14 03:51:15;;;;;;;2.83;2.63;;;;;;;15.81;61.10;101604.28;6365710;28;20182;-75
2021/06/14 03:54:19;;;;;;;3.70;2.33;;;;;;;15.87;61.81;101614.34;6365541;28;20183;-75
2021/06/14 03:57:23;;;;;;;3.45;2.17;;;;;;;15.85;62.06;101616.50;6365418;28;20257;-75
2021/06/14 04:00:27;;;;;;;2.92;2.40;;;;;;;15.95;61.05;101614.03;6365045;28;20182;-75
2021/06/14 04:03:32;;;;;;;4.93;2.97;;;;;;;15.97;61.15;101609.13;6363938;28;20356;-75
2021/06/14 04:06:37;;;;;;;6.57;2.50;;;;;;;15.97;61.94;101598.09;6348717;28;20329;-77
2021/06/14 04:09:43;;;;;;;10.20;2.70;;;;;;;15.91;61.78;101588.06;6346145;28;20218;-75
2021/06/14 04:12:47;;;;;;;3.20;2.78;;;;;;;15.82;62.25;101583.13;6363630;28;20477;-75
2021/06/14 04:15:51;;;;;;;7.50;2.83;;;;;;;15.92;62.02;101589.72;6364052;28;20206;-75
2021/06/14 04:18:55;;;;;;;5.00;2.78;;;;;;;16.01;61.63;101588.31;6363538;28;20192;-75
2021/06/14 04:22:01;;;;;;;10.27;3.22;;;;;;;16.05;62.18;101595.03;6364619;28;20186;-75
2021/06/14 04:25:06;;;;;;;7.03;2.92;;;;;;;16.07;62.14;101581.88;6345378;28;20291;-74
2021/06/14 04:28:13;;;;;;;3.97;2.88;;;;;;;16.09;62.11;101585.25;6363298;28;20495;-74
2021/06/14 04:31:17;;;;;;;4.97;3.28;;;;;;;16.15;62.05;101578.78;6364230;28;20220;-74
2021/06/14 04:34:21;;;;;;;4.03;3.13;;;;;;;16.21;61.92;101577.00;6364302;28;20280;-74
2021/06/14 04:37:27;;;;;;;5.88;3.67;;;;;;;16.23;62.65;101581.19;6364162;28;20213;-74
2021/06/14 04:40:31;;;;;;;8.35;3.45;;;;;;;16.22;62.15;101573.19;6364297;28;20183;-75
2021/06/14 04:43:36;;;;;;;9.50;3.38;;;;;;;16.28;62.84;101578.56;6362823;28;20257;-74
2021/06/14 04:46:40;;;;;;;4.18;3.17;;;;;;;16.25;63.15;101573.53;6364077;28;20258;-74
2021/06/14 04:49:44;;;;;;;4.32;3.20;;;;;;;16.29;62.34;101574.75;6363621;28;20261;-74
2021/06/14 04:52:49;;;;;;;3.65;3.35;;;;;;;16.21;62.55;101586.09;6362711;28;20242;-74
2021/06/14 04:55:54;;;;;;;4.55;3.50;;;;;;;16.30;62.92;101586.59;6363634;28;20280;-74
2021/06/14 04:58:58;;;;;;;6.10;3.42;;;;;;;16.37;63.41;101587.31;6362501;28;20492;-74
2021/06/14 05:02:03;;;;;;;8.45;3.35;;;;;;;16.37;62.62;101592.00;6363323;28;20182;-75
2021/06/14 05:05:08;;;;;;;8.13;4.05;;;;;;;16.41;62.89;101587.69;6363262;28;20189;-74
2021/06/14 05:08:19;;;;;;;3.78;3.25;;;;;;;16.52;62.66;101581.34;6362322;28;20232;-75
2021/06/14 05:11:23;;;;;;;5.28;3.60;;;;;;;16.49;62.77;101573.56;6362317;28;20182;-74
2021/06/14 05:14:28;;;;;;;5.60;3.58;;;;;;;16.58;62.49;101575.78;6362624;28;20189;-74
2021/06/14 05:17:32;;;;;;;5.05;3.88;;;;;;;16.84;62.36;101561.53;6362628;28;20210;-74
2021/06/14 05:20:39;;;;;;;4.00;3.78;;;;;;;17.92;60.87;101563.50;6362569;28;20463;-75
2021/06/14 05:23:45;;;;;;;4.38;3.55;;;;;;;18.19;60.84;101567.31;6362513;28;20182;-75
2021/06/14 05:26:49;;;;;;;5.30;3.22;;;;;;;18.62;58.50;101561.97;6361519;28;20462;-76
2021/06/14 05:29:53;;;;;;;6.30;3.75;;;;;;;18.84;58.75;101544.63;6362086;28;20526;-76
2021/06/14 05:32:57;;;;;;;7.47;4.65;;;;;;;18.76;56.21;101545.88;6363143;28;20214;-75
2021/06/14 05:36:02;;;;;;;6.88;3.97;;;;;;;19.10;56.89;101554.94;6363048;28;20265;-75
2021/06/14 05:39:07;;;;;;;3.88;3.50;;;;;;;19.29;56.13;101564.59;6362151;28;20188;-75
2021/06/14 05:42:13;;;;;;;3.95;3.53;;;;;;;19.33;55.94;101568.53;6361595;28;20243;-75
2021/06/14 05:45:18;;;;;;;11.57;3.40;;;;;;;19.28;56.77;101552.69;6361419;28;20375;-75
2021/06/14 05:48:23;;;;;;;5.20;3.75;;;;;;;19.15;56.05;101552.25;6362495;28;20226;-75
2021/06/14 05:51:27;;;;;;;4.00;3.80;;;;;;;19.25;56.46;101557.91;6361882;28;20530;-75
2021/06/14 05:54:32;;;;;;;9.98;3.60;;;;;;;19.30;56.29;101555.19;6361533;28;20250;-76
2021/06/14 05:57:41;;;;;;;4.00;3.60;;;;;;;19.35;56.95;101558.88;6362745;28;20273;-75
2021/06/14 06:00:46;;;;;;;7.82;3.22;;;;;;;19.30;57.48;101533.06;6361683;28;20461;-75
2021/06/14 06:03:50;;;;;;;10.15;3.45;;;;;;;19.45;56.25;101540.75;6362787;28;20182;-75
2021/06/14 06:06:54;;;;;;;4.60;3.35;;;;;;;19.55;56.40;101547.25;6362397;28;20186;-75
2021/06/14 06:09:59;;;;;;;8.23;3.45;;;;;;;19.36;56.26;101537.59;6362554;28;20182;-75
2021/06/14 06:13:04;;;;;;;6.90;3.63;;;;;;;19.47;56.92;101539.38;6362323;28;20189;-75
2021/06/14 06:16:11;;;;;;;5.88;3.58;;;;;;;19.43;57.12;101535.47;6362284;28;20182;-75
2021/06/14 06:19:15;;;;;;;3.63;3.30;;;;;;;19.44;56.30;101528.84;6362314;28;20247;-75
2021/06/14 06:22:19;;;;;;;7.78;3.78;;;;;;;19.49;56.43;101520.59;6362751;28;20231;-75
2021/06/14 06:25:27;;;;;;;6.50;3.63;;;;;;;19.56;56.51;101517.63;6361590;28;20190;-74
2021/06/14 06:28:31;;;;;;;5.82;3.60;;;;;;;19.62;56.28;101520.19;6362571;28;20190;-75
2021/06/14 06:31:35;;;;;;;4.03;3.65;;;;;;;19.67;57.17;101528.53;6366048;28;20187;-75
2021/06/14 06:34:42;;;;;;;6.15;3.72;;;;;;;19.69;56.67;101518.06;6367426;28;20246;-75
2021/06/14 06:37:47;;;;;;;3.60;3.30;;;;;;;19.78;57.05;101513.72;6365734;28;20382;-75
2021/06/14 06:40:52;;;;;;;5.47;3.20;;;;;;;19.92;56.41;101503.91;6367175;28;20220;-75
2021/06/14 06:43:56;;;;;;;7.57;3.67;;;;;;;19.89;56.13;101493.34;6366584;28;20194;-76
2021/06/14 06:47:01;;;;;;;5.63;3.50;;;;;;;20.11;57.06;101498.78;6365340;28;20564;-75
2021/06/14 06:50:08;;;;;;;4.05;3.45;;;;;;;20.22;57.25;101496.94;6367017;28;20193;-75
2021/06/14 06:53:13;;;;;;;5.65;3.55;;;;;;;20.30;56.33;101493.72;6347567;28;20456;-75
2021/06/14 06:56:19;;;;;;;4.10;3.70;;;;;;;20.39;56.24;101489.34;6366617;28;20217;-75
2021/06/14 06:59:24;;;;;;;6.88;3.92;;;;;;;20.40;55.31;101485.47;6365240;28;20237;-75
2021/06/14 07:02:28;;;;;;;4.47;3.58;;;;;;;20.47;55.84;101472.22;6365611;28;20186;-75
2021/06/14 07:05:33;;;;;;;5.55;3.95;;;;;;;20.59;55.54;101481.19;6366057;28;20249;-75
2021/06/14 07:08:37;;;;;;;6.40;3.90;;;;;;;20.66;55.13;101481.75;6366056;28;20217;-76
2021/06/14 07:11:42;;;;;;;4.57;3.63;;;;;;;20.57;55.20;101489.75;6365858;28;20194;-75
2021/06/14 07:14:46;;;;;;;6.40;3.42;;;;;;;20.47;55.78;101472.22;6364851;28;20465;-75
2021/06/14 07:17:51;;;;;;;3.90;3.60;;;;;;;20.42;54.84;101472.16;6365083;28;20210;-75
2021/06/14 07:20:57;;;;;;;7.53;3.63;;;;;;;20.58;56.03;101471.19;6366160;28;20182;-75
2021/06/14 07:24:01;;;;;;;4.10;3.67;;;;;;;20.65;56.23;101465.41;6365896;28;20183;-75
2021/06/14 07:27:08;;;;;;;4.70;3.80;;;;;;;20.76;56.09;101465.19;6364746;28;20193;-76
2021/06/14 07:30:14;;;;;;;6.93;3.42;;;;;;;20.75;55.34;101476.56;6365946;28;20182;-76
2021/06/14 07:33:19;;;;;;;7.28;3.75;;;;;;;20.77;55.79;101466.88;6365477;28;20213;-76
2021/06/14 07:36:23;;;;;;;4.63;3.83;;;;;;;20.86;56.40;101470.78;6365823;28;20183;-75
2021/06/14 07:39:27;;;;;;;5.15;4.05;;;;;;;20.89;56.14;101478.56;6346311;28;20218;-75
2021/06/14 07:42:32;;;;;;;3.92;3.60;;;;;;;21.02;55.00;101475.31;6364934;28;20259;-75
2021/06/14 07:45:38;;;;;;;5.35;3.35;;;;;;;21.02;55.85;101472.53;6364220;28;20465;-75
2021/06/14 07:48:42;;;;;;;3.78;3.47;;;;;;;21.04;55.19;101467.53;6363894;28;20229;-75
2021/06/14 07:51:46;;;;;;;3.90;3.60;;;;;;;20.97;54.19;101471.66;6364072;28;20372;-75
2021/06/14 07:54:50;;;;;;;4.28;3.88;;;;;;;21.11;55.63;101470.91;6365151;28;20245;-76
2021/06/14 07:57:56;;;;;;;8.07;3.95;;;;;;;20.99;54.70;101470.28;6363646;28;20445;-75
2021/06/14 08:01:02;;;;;;;4.40;3.65;;;;;;;21.03;54.21;101459.50;6365233;28;20190;-75
2021/06/14 08:04:06;;;;;;;7.65;4.03;;;;;;;21.01;55.41;101450.59;6364812;28;20183;-76
2021/06/14 08:07:10;;;;;;;7.55;4.38;;;;;;;21.06;54.55;101465.34;6364688;28;20189;-76
2021/06/14 08:10:16;;;;;;;18.75;6.07;;;;;;;21.16;55.11;101462.59;6363762;28;20533;-76
2021/06/14 08:13:22;;;;;;;19.05;9.68;;;;;;;21.29;55.59;101463.22;6363553;28;20473;-76
2021/06/14 08:16:29;;;;;;;5.18;4.68;;;;;;;21.28;55.21;101464.31;6364785;28;20221;-76
2021/06/14 08:19:38;;;;;;;7.68;3.88;;;;;;;21.34;55.10;101460.47;6364589;28;20296;-76
2021/06/14 08:26:06;;;;;;;5.22;4.10;;;;;;;21.54;55.71;101449.41;6364409;28;20189;-76
2021/06/14 08:29:12;;;;;;;7.35;3.83;;;;;;;21.50;55.68;101448.28;6364421;28;20255;-76
2021/06/14 08:32:16;;;;;;;7.32;3.67;;;;;;;21.48;54.68;101447.72;6363219;28;20484;-76
2021/06/14 08:35:22;;;;;;;5.07;3.70;;;;;;;21.53;54.87;101450.50;6363383;28;20204;-76
2021/06/14 08:38:26;;;;;;;5.32;3.75;;;;;;;21.50;54.96;101437.16;6362905;28;20409;-76
2021/06/14 08:41:30;;;;;;;3.78;3.53;;;;;;;21.52;55.04;101446.88;6363875;28;20258;-76
2021/06/14 08:44:36;;;;;;;6.68;3.70;;;;;;;21.63;55.41;101442.19;6362827;28;20235;-76
2021/06/14 08:47:43;;;;;;;5.22;3.85;;;;;;;21.69;54.90;101452.19;6363990;28;20287;-76
2021/06/14 08:50:47;;;;;;;9.73;3.72;;;;;;;21.65;54.85;101442.72;6363724;28;20224;-76
2021/06/14 08:53:52;;;;;;;4.13;3.83;;;;;;;21.66;55.16;101436.09;6362271;28;20185;-76
2021/06/14 08:56:56;;;;;;;9.07;3.67;;;;;;;21.66;55.05;101448.03;6343695;28;20205;-76
2021/06/14 09:00:03;;;;;;;5.05;3.05;;;;;;;21.69;55.21;101435.53;6344369;28;20284;-76
2021/06/14 09:03:18;;;;;;;4.95;3.50;;;;;;;21.63;55.49;101436.63;6345264;28;20519;-75
2021/06/14 09:06:22;;;;;;;9.88;4.03;;;;;;;21.72;55.38;101435.81;6363555;28;20190;-75
2021/06/14 09:09:29;;;;;;;5.07;3.20;;;;;;;21.76;55.57;101436.09;6362134;28;20228;-75
2021/06/14 09:12:41;;;;;;;7.38;3.70;;;;;;;21.66;55.25;101436.94;6362792;28;20182;-75
2021/06/14 09:15:51;;;;;;;3.85;3.45;;;;;;;21.74;55.10;101427.22;6361865;28;20520;-75
2021/06/14 09:18:55;;;;;;;6.95;3.45;;;;;;;21.81;55.24;101424.97;6362712;28;20210;-75
2021/06/14 09:22:15;;;;;;;6.00;3.45;;;;;;;21.93;55.04;101411.66;6362284;28;20183;-75
2021/06/14 09:25:20;;;;;;;5.13;3.55;;;;;;;21.86;54.81;101391.69;6361744;28;20236;-75
2021/06/14 09:28:24;;;;;;;4.18;3.38;;;;;;;21.90;55.12;101395.59;6362197;28;20186;-75
2021/06/14 09:31:38;;;;;;;5.13;3.65;;;;;;;21.87;54.85;101387.81;6361292;28;20182;-75
2021/06/14 09:34:43;;;;;;;6.68;3.50;;;;;;;21.93;55.41;101392.22;6362531;28;20218;-76
2021/06/14 09:38:07;;;;;;;6.20;3.30;;;;;;;21.96;54.38;101382.50;6362413;28;20183;-75
2021/06/14 09:41:14;;;;;;;4.68;3.45;;;;;;;22.06;54.78;101365.84;6362772;28;20273;-75
2021/06/14 09:44:27;;;;;;;6.38;3.50;;;;;;;22.19;55.21;101385.53;6361397;28;20542;-76
2021/06/14 09:47:33;;;;;;;8.20;4.18;;;;;;;22.25;55.63;101389.97;6361319;28;20293;-75
2021/06/14 09:50:43;;;;;;;5.90;3.50;;;;;;;22.25;55.35;101378.84;6353614;28;20190;-75
2021/06/14 09:53:51;;;;;;;5.70;3.55;;;;;;;22.26;54.66;101371.34;6362119;28;20183;-76
2021/06/14 09:56:57;;;;;;;3.50;3.20;;;;;;;22.24;54.66;101366.06;6361402;28;20520;-76
2021/06/14 10:00:10;;;;;;;5.57;3.58;;;;;;;22.25;54.18;101367.75;6362192;28;20237;-75
2021/06/14 10:03:26;;;;;;;4.45;3.33;;;;;;;22.26;54.00;101363.81;6361201;28;20221;-75
2021/06/14 10:06:34;;;;;;;6.00;3.58;;;;;;;22.29;54.14;101368.81;6349862;28;20204;-75
2021/06/14 10:09:43;;;;;;;3.88;3.55;;;;;;;22.33;55.08;101350.47;6367641;28;20245;-75
2021/06/14 10:12:52;;;;;;;3.83;3.50;;;;;;;22.35;54.70;101351.03;6366628;28;20209;-75
2021/06/14 10:16:03;;;;;;;4.18;3.05;;;;;;;22.31;53.52;101336.03;6366347;28;20209;-75
2021/06/14 10:19:10;;;;;;;4.93;3.30;;;;;;;22.33;54.09;101332.97;6366475;28;20259;-75
2021/06/14 10:22:14;;;;;;;3.30;3.10;;;;;;;22.35;54.22;101317.66;6367326;28;20186;-75
2021/06/14 10:25:21;;;;;;;4.72;3.40;;;;;;;22.50;54.09;101329.84;6367657;28;20190;-75
2021/06/14 10:28:25;;;;;;;3.95;3.67;;;;;;;22.49;54.15;101311.50;6367542;28;20220;-76
2021/06/14 10:31:30;;;;;;;8.82;3.90;;;;;;;22.55;54.62;101322.31;6367013;28;20192;-75
2021/06/14 10:34:36;;;;;;;5.75;3.38;;;;;;;22.55;54.22;101315.91;6367017;28;20204;-75
2021/06/14 10:37:43;;;;;;;3.92;3.28;;;;;;;22.58;55.14;101288.38;6366968;28;20254;-75
2021/06/14 10:40:50;;;;;;;7.47;3.00;;;;;;;22.63;54.48;101301.44;6367458;28;20210;-76
2021/06/14 10:43:55;;;;;;;17.63;4.90;;;;;;;22.59;53.25;101294.78;6366612;28;20220;-75
2021/06/14 10:46:59;;;;;;;5.28;3.35;;;;;;;22.67;53.16;101288.66;6366856;28;20275;-75
2021/06/14 10:50:10;;;;;;;8.95;3.60;;;;;;;22.72;52.86;101294.19;6365432;28;20384;-76
2021/06/14 10:53:23;;;;;;;4.13;3.50;;;;;;;22.79;53.23;101289.97;6348201;28;20408;-75
2021/06/14 10:56:28;;;;;;;3.33;2.92;;;;;;;22.77;53.09;101283.03;6367181;28;20183;-76
2021/06/14 10:59:36;;;;;;;8.30;3.25;;;;;;;22.72;52.78;101288.63;6366193;28;20210;-76
2021/06/14 11:02:51;;;;;;;5.05;3.20;;;;;;;22.77;53.25;101291.38;6365686;28;20246;-75
2021/06/14 11:05:58;;;;;;;7.15;3.42;;;;;;;22.66;53.12;101289.75;6365335;28;20220;-75
2021/06/14 11:09:09;;;;;;;3.33;3.13;;;;;;;22.62;53.34;101289.50;6365080;28;20244;-75
2021/06/14 11:12:27;;;;;;;6.60;3.10;;;;;;;22.76;53.46;101292.47;6366062;28;20186;-75
2021/06/14 11:15:34;;;;;;;7.13;3.20;;;;;;;22.86;53.65;101284.06;6357122;28;20259;-76
2021/06/14 11:18:39;;;;;;;2.92;2.83;;;;;;;22.87;53.15;101277.41;6365019;28;20465;-76
2021/06/14 11:21:53;;;;;;;3.50;3.20;;;;;;;22.89;53.98;101275.16;6364814;28;20520;-75
2021/06/14 11:24:58;;;;;;;5.15;2.88;;;;;;;22.96;54.02;101267.31;6364800;28;20443;-75
2021/06/14 11:28:06;;;;;;;5.65;3.35;;;;;;;23.00;53.93;101273.97;6365150;28;20182;-75
2021/06/14 11:31:16;;;;;;;5.53;3.35;;;;;;;23.13;54.06;101267.75;6365756;28;20186;-75
2021/06/14 11:34:21;;;;;;;4.97;3.58;;;;;;;23.22;53.40;101266.00;6365675;28;20182;-75
2021/06/14 11:37:39;;;;;;;3.13;2.78;;;;;;;23.36;53.13;101247.56;6365564;28;20228;-75
2021/06/14 11:40:50;;;;;;;4.28;2.78;;;;;;;23.37;53.32;101267.88;6365085;28;20206;-75
2021/06/14 11:44:19;;;;;;;3.80;3.20;;;;;;;23.34;53.33;101269.22;6365226;28;20182;-75
2021/06/14 11:47:26;;;;;;;15.55;3.97;;;;;;;23.26;52.96;101269.88;6364788;28;20241;-75
2021/06/14 11:50:33;;;;;;;5.30;2.92;;;;;;;23.30;52.89;101261.75;6365181;28;20261;-75
2021/06/14 11:53:52;;;;;;;3.50;3.20;;;;;;;23.44;52.77;101260.84;6346772;28;20243;-75
2021/06/14 11:57:00;;;;;;;6.78;3.50;;;;;;;23.42;53.29;101238.00;6364146;28;20519;-75
2021/06/14 12:00:07;;;;;;;2.95;2.85;;;;;;;23.36;52.25;101232.75;6364407;28;20226;-74
2021/06/14 12:03:20;;;;;;;2.88;2.78;;;;;;;23.33;52.43;101228.59;6363831;28;20182;-75
2021/06/14 12:06:25;;;;;;;3.30;3.10;;;;;;;23.17;53.00;101235.41;6363664;28;20183;-74
2021/06/14 12:09:30;;;;;;;5.90;3.03;;;;;;;23.30;53.36;101228.34;6365097;28;20182;-75
2021/06/14 12:12:35;;;;;;;3.42;2.75;;;;;;;23.30;53.35;101223.63;6363947;28;20186;-74
2021/06/14 12:15:40;;;;;;;5.20;3.10;;;;;;;23.34;52.94;101207.16;6363687;28;20631;-75
2021/06/14 12:18:45;;;;;;;3.40;2.90;;;;;;;23.39;53.00;101221.91;6363732;28;20182;-75
2021/06/14 12:21:52;;;;;;;3.08;2.70;;;;;;;23.36;53.30;101214.16;6363374;28;20452;-75
2021/06/14 12:25:03;;;;;;;8.68;2.95;;;;;;;23.38;53.37;101202.69;6364641;28;20182;-75
2021/06/14 12:28:10;;;;;;;6.68;3.00;;;;;;;23.38;53.33;101195.19;6363421;28;20189;-76
2021/06/14 12:31:15;;;;;;;3.10;2.90;;;;;;;23.43;53.24;101195.13;6363659;28;20186;-76
2021/06/14 12:34:27;;;;;;;2.80;2.22;;;;;;;23.20;52.12;101179.19;6364097;28;20182;-75
2021/06/14 12:37:32;;;;;;;3.75;2.20;;;;;;;23.40;52.18;101179.00;6362895;28;20481;-75
2021/06/14 12:40:39;;;;;;;2.30;2.20;;;;;;;23.48;52.58;101174.75;6362898;28;20409;-75
2021/06/14 12:43:43;;;;;;;2.80;2.33;;;;;;;23.52;52.47;101176.66;6362799;28;20411;-75
2021/06/14 12:46:48;;;;;;;7.63;2.40;;;;;;;23.52;52.07;101185.00;6363774;28;20227;-76
2021/06/14 12:49:53;;;;;;;2.75;2.58;;;;;;;23.43;52.95;101178.41;6363856;28;20233;-75
2021/06/14 12:53:00;;;;;;;3.30;3.10;;;;;;;23.45;53.13;101187.31;6363570;28;20190;-75
2021/06/14 12:56:06;;;;;;;3.65;3.25;;;;;;;23.49;53.43;101188.41;6364154;28;20186;-75
2021/06/14 12:59:10;;;;;;;7.40;3.28;;;;;;;23.35;53.30;101181.81;6363793;28;20183;-75
2021/06/14 13:02:15;;;;;;;5.95;3.35;;;;;;;23.28;53.64;101164.63;6363354;28;20259;-74
2021/06/14 13:05:29;;;;;;;6.78;3.75;;;;;;;23.33;53.86;101160.94;6345185;28;20198;-74
2021/06/14 13:08:34;;;;;;;7.85;3.90;;;;;;;23.41;54.11;101172.31;6362237;28;20518;-75
2021/06/14 13:11:46;;;;;;;3.60;3.30;;;;;;;23.23;54.17;101161.91;6362985;28;20186;-74
2021/06/14 13:14:51;;;;;;;3.63;3.08;;;;;;;23.47;53.89;101168.34;6362227;28;20489;-75
2021/06/14 13:17:56;;;;;;;3.72;3.00;;;;;;;23.40;53.48;101170.66;6363428;28;20182;-75
2021/06/14 13:21:08;;;;;;;2.95;2.85;;;;;;;23.36;53.53;101177.94;6362603;28;20276;-76
2021/06/14 13:24:13;;;;;;;8.48;3.25;;;;;;;23.48;53.68;101158.88;6362758;28;20182;-76
2021/06/14 13:27:21;;;;;;;3.85;3.55;;;;;;;23.54;54.21;101151.31;6362864;28;20190;-76
2021/06/14 13:30:25;;;;;;;7.82;3.80;;;;;;;23.45;54.17;101148.31;6363078;28;20189;-76
2021/06/14 13:33:40;;;;;;;4.07;3.75;;;;;;;23.43;54.62;101158.94;6362544;28;20208;-76
2021/06/14 13:36:47;;;;;;;5.28;3.53;;;;;;;23.43;54.38;101133.88;6356326;28;20183;-76
2021/06/14 13:39:51;;;;;;;4.82;3.97;;;;;;;23.21;54.58;101141.88;6361319;28;20408;-76
2021/06/14 13:42:58;;;;;;;3.97;3.63;;;;;;;23.33;54.80;101127.53;6362621;28;20213;-75
2021/06/14 13:46:04;;;;;;;4.18;3.78;;;;;;;23.27;54.34;101129.53;6362447;28;20246;-76
2021/06/14 13:49:11;;;;;;;7.25;3.58;;;;;;;23.34;54.19;101107.75;6362914;28;20261;-75
2021/06/14 13:52:17;;;;;;;5.38;3.78;;;;;;;23.49;54.03;101117.94;6344417;28;20218;-75
2021/06/14 13:55:24;;;;;;;9.15;4.00;;;;;;;23.55;54.45;101114.78;6362416;28;20213;-75
2021/06/14 13:58:34;;;;;;;5.80;4.28;;;;;;;23.52;53.50;101101.44;6361703;28;20185;-75
2021/06/14 14:01:40;;;;;;;5.00;3.72;;;;;;;23.53;54.83;101089.19;6362448;28;20206;-75
2021/06/14 14:04:44;;;;;;;11.15;3.70;;;;;;;23.50;54.23;101095.34;6361260;28;20182;-75
2021/06/14 14:07:49;;;;;;;6.97;3.85;;;;;;;23.49;53.86;101088.16;6361287;28;20381;-75
2021/06/14 14:10:53;;;;;;;4.20;3.80;;;;;;;23.85;53.38;101073.75;6362192;28;20219;-75
2021/06/14 14:14:00;;;;;;;6.88;3.67;;;;;;;24.10;52.47;101065.06;6361047;28;20493;-75
2021/06/14 14:17:05;;;;;;;4.00;3.42;;;;;;;23.85;51.72;101060.66;6362089;28;20189;-75
2021/06/14 14:20:11;;;;;;;5.18;3.38;;;;;;;23.84;52.20;101055.38;6361915;28;20183;-76
2021/06/14 14:23:17;;;;;;;10.02;3.80;;;;;;;23.92;52.21;101052.75;6360872;28;20267;-75
2021/06/14 14:26:21;;;;;;;3.92;3.72;;;;;;;23.91;53.35;101033.56;6362239;28;20328;-74
2021/06/14 14:29:29;;;;;;;3.72;3.53;;;;;;;23.92;52.66;101022.09;6362437;28;20204;-75
2021/06/14 14:32:34;;;;;;;3.83;3.55;;;;;;;24.12;53.04;101018.19;6361401;28;20377;-75